sensor_id;sensor_type;location;lat;lon;timestamp;P1;durP1;ratioP1;P2;durP2;ratioP2
7195;SDS011;3639;51.308;5.624;2023-06-10T00:01:53;7.53;;;6.53;;
7195;SDS011;3639;51.308;5.624;2023-06-10T00:04:23;8.60;;;6.30;;
7195;SDS011;3639;51.308;5.624;2023-06-10T00:06:48;9.57;;;6.40;;
7195;SDS011;3639;51.308;5.624;2023-06-10T00:09:14;9.25;;;6.28;;
7195;SDS011;3639;51.308;5.624;2023-06-10T00:11:40;6.70;;;6.00;;
7195;SDS011;3639;51.308;5.624;2023-06-10T00:14:06;8.85;;;6.55;;
7195;SDS011;3639;51.308;5.624;2023-06-10T00:16:32;7.00;;;6.30;;
7195;SDS011;3639;51.308;5.624;2023-06-10T00:18:59;7.57;;;6.05;;
7195;SDS011;3639;51.308;5.624;2023-06-10T00:21:30;10.47;;;6.10;;
7195;SDS011;3639;51.308;5.624;2023-06-10T00:24:02;7.43;;;6.23;;
7195;SDS011;3639;51.308;5.624;2023-06-10T00:26:39;10.45;;;7.28;;
7195;SDS011;3639;51.308;5.624;2023-06-10T00:29:06;6.70;;;5.55;;
7195;SDS011;3639;51.308;5.624;2023-06-10T00:31:33;8.10;;;5.78;;
7195;SDS011;3639;51.308;5.624;2023-06-10T00:33:59;11.17;;;6.87;;
7195;SDS011;3639;51.308;5.624;2023-06-10T00:36:24;8.47;;;6.47;;
7195;SDS011;3639;51.308;5.624;2023-06-10T00:38:50;11.70;;;6.40;;
7195;SDS011;3639;51.308;5.624;2023-06-10T00:41:16;7.85;;;6.38;;
7195;SDS011;3639;51.308;5.624;2023-06-10T00:43:41;6.68;;;6.07;;
7195;SDS011;3639;51.308;5.624;2023-06-10T00:46:07;8.60;;;6.80;;
7195;SDS011;3639;51.308;5.624;2023-06-10T00:48:32;9.53;;;5.93;;
7195;SDS011;3639;51.308;5.624;2023-06-10T00:50:58;8.77;;;6.37;;
7195;SDS011;3639;51.308;5.624;2023-06-10T00:53:25;7.82;;;6.13;;
7195;SDS011;3639;51.308;5.624;2023-06-10T00:55:52;8.40;;;6.10;;
7195;SDS011;3639;51.308;5.624;2023-06-10T00:58:18;7.70;;;5.90;;
7195;SDS011;3639;51.308;5.624;2023-06-10T01:00:44;6.90;;;6.13;;
7195;SDS011;3639;51.308;5.624;2023-06-10T01:03:10;6.80;;;6.10;;
7195;SDS011;3639;51.308;5.624;2023-06-10T01:05:37;8.67;;;6.20;;
7195;SDS011;3639;51.308;5.624;2023-06-10T01:08:09;7.77;;;5.87;;
7195;SDS011;3639;51.308;5.624;2023-06-10T01:10:41;6.73;;;5.77;;
7195;SDS011;3639;51.308;5.624;2023-06-10T01:13:10;8.17;;;6.33;;
7195;SDS011;3639;51.308;5.624;2023-06-10T01:15:37;8.90;;;5.90;;
7195;SDS011;3639;51.308;5.624;2023-06-10T01:18:04;8.40;;;6.73;;
7195;SDS011;3639;51.308;5.624;2023-06-10T01:20:33;9.50;;;6.87;;
7195;SDS011;3639;51.308;5.624;2023-06-10T01:23:01;10.30;;;6.97;;
7195;SDS011;3639;51.308;5.624;2023-06-10T01:25:29;10.33;;;6.63;;
7195;SDS011;3639;51.308;5.624;2023-06-10T01:28:02;8.40;;;6.80;;
7195;SDS011;3639;51.308;5.624;2023-06-10T01:30:33;9.20;;;7.23;;
7195;SDS011;3639;51.308;5.624;2023-06-10T01:33:26;8.40;;;6.77;;
7195;SDS011;3639;51.308;5.624;2023-06-10T01:35:55;9.43;;;6.60;;
7195;SDS011;3639;51.308;5.624;2023-06-10T01:38:22;9.17;;;6.97;;
7195;SDS011;3639;51.308;5.624;2023-06-10T01:40:50;10.27;;;7.10;;
7195;SDS011;3639;51.308;5.624;2023-06-10T01:43:19;9.67;;;8.13;;
7195;SDS011;3639;51.308;5.624;2023-06-10T01:45:46;10.33;;;7.80;;
7195;SDS011;3639;51.308;5.624;2023-06-10T01:48:11;8.60;;;7.70;;
7195;SDS011;3639;51.308;5.624;2023-06-10T01:50:37;10.50;;;7.60;;
7195;SDS011;3639;51.308;5.624;2023-06-10T01:53:03;9.23;;;7.50;;
7195;SDS011;3639;51.308;5.624;2023-06-10T01:55:30;10.43;;;8.47;;
7195;SDS011;3639;51.308;5.624;2023-06-10T01:57:56;10.60;;;8.57;;
7195;SDS011;3639;51.308;5.624;2023-06-10T02:00:21;12.30;;;10.27;;
7195;SDS011;3639;51.308;5.624;2023-06-10T02:02:47;10.73;;;8.83;;
7195;SDS011;3639;51.308;5.624;2023-06-10T02:05:12;13.10;;;9.17;;
7195;SDS011;3639;51.308;5.624;2023-06-10T02:07:38;12.03;;;9.20;;
7195;SDS011;3639;51.308;5.624;2023-06-10T02:10:04;13.10;;;9.63;;
7195;SDS011;3639;51.308;5.624;2023-06-10T02:12:30;10.80;;;9.17;;
7195;SDS011;3639;51.308;5.624;2023-06-10T02:14:56;13.03;;;9.40;;
7195;SDS011;3639;51.308;5.624;2023-06-10T02:17:21;12.13;;;9.77;;
7195;SDS011;3639;51.308;5.624;2023-06-10T02:19:48;11.07;;;9.27;;
7195;SDS011;3639;51.308;5.624;2023-06-10T02:22:17;12.70;;;10.33;;
7195;SDS011;3639;51.308;5.624;2023-06-10T02:24:47;13.07;;;10.00;;
7195;SDS011;3639;51.308;5.624;2023-06-10T02:27:13;18.20;;;10.73;;
7195;SDS011;3639;51.308;5.624;2023-06-10T02:29:39;12.43;;;10.03;;
7195;SDS011;3639;51.308;5.624;2023-06-10T02:32:06;14.07;;;9.23;;
7195;SDS011;3639;51.308;5.624;2023-06-10T02:34:32;11.97;;;9.80;;
7195;SDS011;3639;51.308;5.624;2023-06-10T02:36:58;12.97;;;9.53;;
7195;SDS011;3639;51.308;5.624;2023-06-10T02:39:24;12.63;;;9.90;;
7195;SDS011;3639;51.308;5.624;2023-06-10T02:41:50;14.43;;;10.10;;
7195;SDS011;3639;51.308;5.624;2023-06-10T02:44:17;12.70;;;10.10;;
7195;SDS011;3639;51.308;5.624;2023-06-10T02:46:43;15.80;;;10.47;;
7195;SDS011;3639;51.308;5.624;2023-06-10T02:49:09;14.60;;;11.03;;
7195;SDS011;3639;51.308;5.624;2023-06-10T02:51:34;17.77;;;10.77;;
7195;SDS011;3639;51.308;5.624;2023-06-10T02:54:00;13.13;;;9.97;;
7195;SDS011;3639;51.308;5.624;2023-06-10T02:56:26;16.90;;;11.23;;
7195;SDS011;3639;51.308;5.624;2023-06-10T02:58:52;15.80;;;11.20;;
7195;SDS011;3639;51.308;5.624;2023-06-10T03:01:18;14.67;;;11.33;;
7195;SDS011;3639;51.308;5.624;2023-06-10T03:03:44;13.93;;;10.83;;
7195;SDS011;3639;51.308;5.624;2023-06-10T03:06:11;14.40;;;10.90;;
7195;SDS011;3639;51.308;5.624;2023-06-10T03:08:37;14.60;;;10.93;;
7195;SDS011;3639;51.308;5.624;2023-06-10T03:11:03;14.93;;;11.77;;
7195;SDS011;3639;51.308;5.624;2023-06-10T03:13:29;14.57;;;10.43;;
7195;SDS011;3639;51.308;5.624;2023-06-10T03:15:55;14.37;;;10.47;;
7195;SDS011;3639;51.308;5.624;2023-06-10T03:18:20;14.80;;;11.07;;
7195;SDS011;3639;51.308;5.624;2023-06-10T03:20:48;14.03;;;10.80;;
7195;SDS011;3639;51.308;5.624;2023-06-10T03:23:13;17.47;;;11.30;;
7195;SDS011;3639;51.308;5.624;2023-06-10T03:25:40;16.93;;;11.03;;
7195;SDS011;3639;51.308;5.624;2023-06-10T03:28:06;13.57;;;10.33;;
7195;SDS011;3639;51.308;5.624;2023-06-10T03:30:31;17.60;;;11.83;;
7195;SDS011;3639;51.308;5.624;2023-06-10T03:32:57;15.87;;;10.70;;
7195;SDS011;3639;51.308;5.624;2023-06-10T03:35:22;16.47;;;11.33;;
7195;SDS011;3639;51.308;5.624;2023-06-10T03:37:48;13.83;;;10.97;;
7195;SDS011;3639;51.308;5.624;2023-06-10T03:40:14;14.27;;;11.23;;
7195;SDS011;3639;51.308;5.624;2023-06-10T03:42:39;14.03;;;11.20;;
7195;SDS011;3639;51.308;5.624;2023-06-10T03:45:05;13.63;;;10.57;;
7195;SDS011;3639;51.308;5.624;2023-06-10T03:47:34;13.97;;;10.50;;
7195;SDS011;3639;51.308;5.624;2023-06-10T03:50:03;13.67;;;10.30;;
7195;SDS011;3639;51.308;5.624;2023-06-10T03:52:29;13.07;;;9.97;;
7195;SDS011;3639;51.308;5.624;2023-06-10T03:54:55;16.13;;;10.50;;
7195;SDS011;3639;51.308;5.624;2023-06-10T03:57:21;18.67;;;11.33;;
7195;SDS011;3639;51.308;5.624;2023-06-10T03:59:46;18.87;;;11.17;;
7195;SDS011;3639;51.308;5.624;2023-06-10T04:02:12;16.53;;;11.60;;
7195;SDS011;3639;51.308;5.624;2023-06-10T04:04:38;14.83;;;10.73;;
7195;SDS011;3639;51.308;5.624;2023-06-10T04:07:06;16.23;;;12.10;;
7195;SDS011;3639;51.308;5.624;2023-06-10T04:09:33;13.97;;;10.73;;
7195;SDS011;3639;51.308;5.624;2023-06-10T04:11:58;17.63;;;11.80;;
7195;SDS011;3639;51.308;5.624;2023-06-10T04:14:24;15.50;;;10.70;;
7195;SDS011;3639;51.308;5.624;2023-06-10T04:16:49;13.73;;;11.03;;
7195;SDS011;3639;51.308;5.624;2023-06-10T04:19:16;16.87;;;11.73;;
7195;SDS011;3639;51.308;5.624;2023-06-10T04:21:41;15.77;;;11.47;;
7195;SDS011;3639;51.308;5.624;2023-06-10T04:24:07;21.97;;;11.90;;
7195;SDS011;3639;51.308;5.624;2023-06-10T04:26:34;15.30;;;11.53;;
7195;SDS011;3639;51.308;5.624;2023-06-10T04:29:00;14.73;;;11.30;;
7195;SDS011;3639;51.308;5.624;2023-06-10T04:31:26;17.43;;;11.63;;
7195;SDS011;3639;51.308;5.624;2023-06-10T04:33:52;17.47;;;12.07;;
7195;SDS011;3639;51.308;5.624;2023-06-10T04:36:18;15.03;;;11.53;;
7195;SDS011;3639;51.308;5.624;2023-06-10T04:38:44;14.60;;;11.17;;
7195;SDS011;3639;51.308;5.624;2023-06-10T04:41:09;18.53;;;11.53;;
7195;SDS011;3639;51.308;5.624;2023-06-10T04:43:35;17.97;;;11.60;;
7195;SDS011;3639;51.308;5.624;2023-06-10T04:46:01;14.60;;;11.80;;
7195;SDS011;3639;51.308;5.624;2023-06-10T04:48:27;17.10;;;11.20;;
7195;SDS011;3639;51.308;5.624;2023-06-10T04:50:52;14.23;;;11.37;;
7195;SDS011;3639;51.308;5.624;2023-06-10T04:53:18;15.47;;;11.50;;
7195;SDS011;3639;51.308;5.624;2023-06-10T04:55:44;19.00;;;12.43;;
7195;SDS011;3639;51.308;5.624;2023-06-10T04:58:09;16.20;;;11.50;;
7195;SDS011;3639;51.308;5.624;2023-06-10T05:00:35;12.93;;;11.00;;
7195;SDS011;3639;51.308;5.624;2023-06-10T05:03:01;16.93;;;12.27;;
7195;SDS011;3639;51.308;5.624;2023-06-10T05:05:26;17.03;;;12.10;;
7195;SDS011;3639;51.308;5.624;2023-06-10T05:07:52;19.40;;;12.30;;
7195;SDS011;3639;51.308;5.624;2023-06-10T05:10:17;17.73;;;11.57;;
7195;SDS011;3639;51.308;5.624;2023-06-10T05:12:43;16.13;;;11.77;;
7195;SDS011;3639;51.308;5.624;2023-06-10T05:15:09;15.83;;;11.80;;
7195;SDS011;3639;51.308;5.624;2023-06-10T05:17:35;17.93;;;12.57;;
7195;SDS011;3639;51.308;5.624;2023-06-10T05:20:01;18.07;;;11.93;;
7195;SDS011;3639;51.308;5.624;2023-06-10T05:22:27;16.37;;;11.87;;
7195;SDS011;3639;51.308;5.624;2023-06-10T05:24:52;19.57;;;11.93;;
7195;SDS011;3639;51.308;5.624;2023-06-10T05:27:18;18.50;;;12.20;;
7195;SDS011;3639;51.308;5.624;2023-06-10T05:29:44;17.67;;;12.13;;
7195;SDS011;3639;51.308;5.624;2023-06-10T05:32:10;17.10;;;13.00;;
7195;SDS011;3639;51.308;5.624;2023-06-10T05:34:36;16.63;;;11.93;;
7195;SDS011;3639;51.308;5.624;2023-06-10T05:37:02;15.70;;;11.77;;
7195;SDS011;3639;51.308;5.624;2023-06-10T05:39:28;20.60;;;12.37;;
7195;SDS011;3639;51.308;5.624;2023-06-10T05:41:53;16.23;;;11.93;;
7195;SDS011;3639;51.308;5.624;2023-06-10T05:44:19;17.47;;;12.33;;
7195;SDS011;3639;51.308;5.624;2023-06-10T05:46:44;15.67;;;12.03;;
7195;SDS011;3639;51.308;5.624;2023-06-10T05:49:10;18.00;;;12.77;;
7195;SDS011;3639;51.308;5.624;2023-06-10T05:51:36;20.00;;;13.53;;
7195;SDS011;3639;51.308;5.624;2023-06-10T05:54:02;17.97;;;13.00;;
7195;SDS011;3639;51.308;5.624;2023-06-10T05:56:28;18.60;;;12.73;;
7195;SDS011;3639;51.308;5.624;2023-06-10T05:58:53;18.10;;;12.47;;
7195;SDS011;3639;51.308;5.624;2023-06-10T06:01:19;19.13;;;12.60;;
7195;SDS011;3639;51.308;5.624;2023-06-10T06:03:45;16.07;;;12.37;;
7195;SDS011;3639;51.308;5.624;2023-06-10T06:06:10;16.47;;;12.13;;
7195;SDS011;3639;51.308;5.624;2023-06-10T06:08:36;17.37;;;12.67;;
7195;SDS011;3639;51.308;5.624;2023-06-10T06:11:01;16.57;;;12.67;;
7195;SDS011;3639;51.308;5.624;2023-06-10T06:13:27;16.23;;;12.03;;
7195;SDS011;3639;51.308;5.624;2023-06-10T06:15:53;15.37;;;12.03;;
7195;SDS011;3639;51.308;5.624;2023-06-10T06:18:18;14.73;;;10.93;;
7195;SDS011;3639;51.308;5.624;2023-06-10T06:20:44;16.70;;;12.07;;
7195;SDS011;3639;51.308;5.624;2023-06-10T06:23:09;17.97;;;12.77;;
7195;SDS011;3639;51.308;5.624;2023-06-10T06:25:36;16.00;;;12.33;;
7195;SDS011;3639;51.308;5.624;2023-06-10T06:28:04;15.20;;;11.77;;
7195;SDS011;3639;51.308;5.624;2023-06-10T06:30:31;15.40;;;12.30;;
7195;SDS011;3639;51.308;5.624;2023-06-10T06:32:56;14.53;;;11.53;;
7195;SDS011;3639;51.308;5.624;2023-06-10T06:35:22;14.80;;;11.33;;
7195;SDS011;3639;51.308;5.624;2023-06-10T06:37:47;15.63;;;11.77;;
7195;SDS011;3639;51.308;5.624;2023-06-10T06:40:13;16.38;;;12.05;;
7195;SDS011;3639;51.308;5.624;2023-06-10T06:42:39;14.73;;;11.17;;
7195;SDS011;3639;51.308;5.624;2023-06-10T06:45:04;15.93;;;11.23;;
7195;SDS011;3639;51.308;5.624;2023-06-10T06:47:30;15.13;;;11.77;;
7195;SDS011;3639;51.308;5.624;2023-06-10T06:49:56;14.18;;;10.80;;
7195;SDS011;3639;51.308;5.624;2023-06-10T06:52:22;16.65;;;11.85;;
7195;SDS011;3639;51.308;5.624;2023-06-10T06:54:47;14.48;;;11.07;;
7195;SDS011;3639;51.308;5.624;2023-06-10T06:57:13;11.48;;;9.95;;
7195;SDS011;3639;51.308;5.624;2023-06-10T06:59:39;14.93;;;10.70;;
7195;SDS011;3639;51.308;5.624;2023-06-10T07:02:05;14.88;;;11.13;;
7195;SDS011;3639;51.308;5.624;2023-06-10T07:04:31;14.55;;;10.48;;
7195;SDS011;3639;51.308;5.624;2023-06-10T07:06:56;11.15;;;9.82;;
7195;SDS011;3639;51.308;5.624;2023-06-10T07:09:22;15.70;;;10.65;;
7195;SDS011;3639;51.308;5.624;2023-06-10T07:11:47;15.07;;;10.95;;
7195;SDS011;3639;51.308;5.624;2023-06-10T07:14:13;13.13;;;10.10;;
7195;SDS011;3639;51.308;5.624;2023-06-10T07:16:39;12.27;;;9.93;;
7195;SDS011;3639;51.308;5.624;2023-06-10T07:19:04;11.70;;;9.43;;
7195;SDS011;3639;51.308;5.624;2023-06-10T07:21:30;14.50;;;9.40;;
7195;SDS011;3639;51.308;5.624;2023-06-10T07:23:57;13.18;;;9.73;;
7195;SDS011;3639;51.308;5.624;2023-06-10T07:26:22;12.38;;;9.95;;
7195;SDS011;3639;51.308;5.624;2023-06-10T07:28:48;12.27;;;9.85;;
7195;SDS011;3639;51.308;5.624;2023-06-10T07:31:14;12.55;;;9.13;;
7195;SDS011;3639;51.308;5.624;2023-06-10T07:33:39;13.02;;;9.93;;
7195;SDS011;3639;51.308;5.624;2023-06-10T07:36:05;14.30;;;9.57;;
7195;SDS011;3639;51.308;5.624;2023-06-10T07:38:31;14.50;;;8.95;;
7195;SDS011;3639;51.308;5.624;2023-06-10T07:40:57;10.90;;;8.02;;
7195;SDS011;3639;51.308;5.624;2023-06-10T07:43:23;12.85;;;8.85;;
7195;SDS011;3639;51.308;5.624;2023-06-10T07:45:49;10.40;;;7.82;;
7195;SDS011;3639;51.308;5.624;2023-06-10T07:48:14;14.43;;;8.43;;
7195;SDS011;3639;51.308;5.624;2023-06-10T07:50:40;10.18;;;8.27;;
7195;SDS011;3639;51.308;5.624;2023-06-10T07:53:06;13.68;;;9.00;;
7195;SDS011;3639;51.308;5.624;2023-06-10T07:55:31;14.32;;;8.98;;
7195;SDS011;3639;51.308;5.624;2023-06-10T07:57:57;11.70;;;8.13;;
7195;SDS011;3639;51.308;5.624;2023-06-10T08:00:23;12.95;;;8.70;;
7195;SDS011;3639;51.308;5.624;2023-06-10T08:02:48;10.77;;;8.75;;
7195;SDS011;3639;51.308;5.624;2023-06-10T08:05:15;13.43;;;8.88;;
7195;SDS011;3639;51.308;5.624;2023-06-10T08:07:41;13.40;;;8.15;;
7195;SDS011;3639;51.308;5.624;2023-06-10T08:10:07;13.15;;;7.63;;
7195;SDS011;3639;51.308;5.624;2023-06-10T08:12:33;9.88;;;8.00;;
7195;SDS011;3639;51.308;5.624;2023-06-10T08:15:00;11.23;;;7.38;;
7195;SDS011;3639;51.308;5.624;2023-06-10T08:17:26;10.98;;;7.97;;
7195;SDS011;3639;51.308;5.624;2023-06-10T08:19:51;9.73;;;7.70;;
7195;SDS011;3639;51.308;5.624;2023-06-10T08:22:17;8.63;;;7.15;;
7195;SDS011;3639;51.308;5.624;2023-06-10T08:24:43;9.07;;;6.63;;
7195;SDS011;3639;51.308;5.624;2023-06-10T08:27:09;12.13;;;8.27;;
7195;SDS011;3639;51.308;5.624;2023-06-10T08:29:35;10.73;;;7.43;;
7195;SDS011;3639;51.308;5.624;2023-06-10T08:32:01;9.20;;;7.93;;
7195;SDS011;3639;51.308;5.624;2023-06-10T08:34:27;8.88;;;7.47;;
7195;SDS011;3639;51.308;5.624;2023-06-10T08:36:53;9.75;;;7.65;;
7195;SDS011;3639;51.308;5.624;2023-06-10T08:39:20;8.82;;;7.25;;
7195;SDS011;3639;51.308;5.624;2023-06-10T08:41:51;9.73;;;7.57;;
7195;SDS011;3639;51.308;5.624;2023-06-10T08:44:28;8.98;;;7.28;;
7195;SDS011;3639;51.308;5.624;2023-06-10T08:46:59;11.30;;;7.38;;
7195;SDS011;3639;51.308;5.624;2023-06-10T08:49:27;8.00;;;6.93;;
7195;SDS011;3639;51.308;5.624;2023-06-10T08:51:58;12.10;;;7.45;;
7195;SDS011;3639;51.308;5.624;2023-06-10T08:54:25;11.90;;;7.43;;
7195;SDS011;3639;51.308;5.624;2023-06-10T08:56:55;8.07;;;6.93;;
7195;SDS011;3639;51.308;5.624;2023-06-10T08:59:22;10.38;;;6.78;;
7195;SDS011;3639;51.308;5.624;2023-06-10T09:01:49;9.18;;;6.43;;
7195;SDS011;3639;51.308;5.624;2023-06-10T09:04:15;8.60;;;6.45;;
7195;SDS011;3639;51.308;5.624;2023-06-10T09:06:42;8.68;;;6.07;;
7195;SDS011;3639;51.308;5.624;2023-06-10T09:09:09;10.35;;;7.03;;
7195;SDS011;3639;51.308;5.624;2023-06-10T09:11:35;12.27;;;7.38;;
7195;SDS011;3639;51.308;5.624;2023-06-10T09:14:03;9.68;;;7.15;;
7195;SDS011;3639;51.308;5.624;2023-06-10T09:16:28;10.27;;;6.97;;
7195;SDS011;3639;51.308;5.624;2023-06-10T09:18:54;12.68;;;6.70;;
7195;SDS011;3639;51.308;5.624;2023-06-10T09:21:23;9.43;;;6.10;;
7195;SDS011;3639;51.308;5.624;2023-06-10T09:23:49;7.13;;;6.18;;
7195;SDS011;3639;51.308;5.624;2023-06-10T09:26:15;6.63;;;5.38;;
7195;SDS011;3639;51.308;5.624;2023-06-10T09:28:44;9.68;;;5.97;;
7195;SDS011;3639;51.308;5.624;2023-06-10T09:31:12;8.13;;;5.65;;
7195;SDS011;3639;51.308;5.624;2023-06-10T09:33:39;8.13;;;5.68;;
7195;SDS011;3639;51.308;5.624;2023-06-10T09:36:05;10.27;;;6.10;;
7195;SDS011;3639;51.308;5.624;2023-06-10T09:38:32;6.97;;;5.78;;
7195;SDS011;3639;51.308;5.624;2023-06-10T09:41:00;11.05;;;7.05;;
7195;SDS011;3639;51.308;5.624;2023-06-10T09:46:05;6.93;;;5.90;;
7195;SDS011;3639;51.308;5.624;2023-06-10T09:48:34;9.48;;;6.05;;
7195;SDS011;3639;51.308;5.624;2023-06-10T09:51:08;9.93;;;6.13;;
7195;SDS011;3639;51.308;5.624;2023-06-10T09:53:35;8.13;;;5.70;;
7195;SDS011;3639;51.308;5.624;2023-06-10T09:56:00;6.78;;;5.32;;
7195;SDS011;3639;51.308;5.624;2023-06-10T09:58:39;7.88;;;5.93;;
7195;SDS011;3639;51.308;5.624;2023-06-10T10:01:10;7.30;;;5.50;;
7195;SDS011;3639;51.308;5.624;2023-06-10T10:03:49;7.88;;;6.22;;
7195;SDS011;3639;51.308;5.624;2023-06-10T10:06:16;9.55;;;5.70;;
7195;SDS011;3639;51.308;5.624;2023-06-10T10:08:43;10.15;;;5.63;;
7195;SDS011;3639;51.308;5.624;2023-06-10T10:11:10;7.55;;;5.38;;
7195;SDS011;3639;51.308;5.624;2023-06-10T10:13:37;7.97;;;5.38;;
7195;SDS011;3639;51.308;5.624;2023-06-10T10:16:11;8.50;;;4.95;;
7195;SDS011;3639;51.308;5.624;2023-06-10T10:18:41;9.27;;;5.32;;
7195;SDS011;3639;51.308;5.624;2023-06-10T10:21:11;9.00;;;5.65;;
7195;SDS011;3639;51.308;5.624;2023-06-10T10:23:39;7.03;;;5.13;;
7195;SDS011;3639;51.308;5.624;2023-06-10T10:26:16;8.00;;;5.43;;
7195;SDS011;3639;51.308;5.624;2023-06-10T10:31:42;6.43;;;5.15;;
7195;SDS011;3639;51.308;5.624;2023-06-10T10:34:12;7.05;;;5.45;;
7195;SDS011;3639;51.308;5.624;2023-06-10T10:36:41;8.10;;;4.72;;
7195;SDS011;3639;51.308;5.624;2023-06-10T10:39:08;11.45;;;5.82;;
7195;SDS011;3639;51.308;5.624;2023-06-10T10:41:34;8.02;;;4.85;;
7195;SDS011;3639;51.308;5.624;2023-06-10T10:44:02;6.18;;;4.78;;
7195;SDS011;3639;51.308;5.624;2023-06-10T10:46:37;8.65;;;5.22;;
7195;SDS011;3639;51.308;5.624;2023-06-10T10:49:08;9.07;;;4.85;;
7195;SDS011;3639;51.308;5.624;2023-06-10T10:51:35;9.38;;;5.40;;
7195;SDS011;3639;51.308;5.624;2023-06-10T10:54:14;9.43;;;6.28;;
7195;SDS011;3639;51.308;5.624;2023-06-10T10:56:44;8.18;;;5.05;;
7195;SDS011;3639;51.308;5.624;2023-06-10T11:02:17;7.65;;;5.20;;
7195;SDS011;3639;51.308;5.624;2023-06-10T11:04:44;6.03;;;5.38;;
7195;SDS011;3639;51.308;5.624;2023-06-10T11:07:13;7.70;;;5.53;;
7195;SDS011;3639;51.308;5.624;2023-06-10T11:10:29;8.10;;;4.63;;
7195;SDS011;3639;51.308;5.624;2023-06-10T11:15:10;6.80;;;4.78;;
7195;SDS011;3639;51.308;5.624;2023-06-10T11:18:20;7.25;;;4.95;;
7195;SDS011;3639;51.308;5.624;2023-06-10T11:28:38;7.35;;;5.03;;
7195;SDS011;3639;51.308;5.624;2023-06-10T11:31:04;5.72;;;4.47;;
7195;SDS011;3639;51.308;5.624;2023-06-10T11:33:31;5.50;;;5.00;;
7195;SDS011;3639;51.308;5.624;2023-06-10T11:35:56;5.07;;;4.57;;
7195;SDS011;3639;51.308;5.624;2023-06-10T11:38:23;6.05;;;4.93;;
7195;SDS011;3639;51.308;5.624;2023-06-10T11:40:49;5.45;;;4.85;;
7195;SDS011;3639;51.308;5.624;2023-06-10T11:43:18;6.47;;;4.93;;
7195;SDS011;3639;51.308;5.624;2023-06-10T11:45:45;6.50;;;4.05;;
7195;SDS011;3639;51.308;5.624;2023-06-10T11:48:11;5.50;;;4.85;;
7195;SDS011;3639;51.308;5.624;2023-06-10T11:50:37;5.05;;;4.35;;
7195;SDS011;3639;51.308;5.624;2023-06-10T11:53:03;6.43;;;4.72;;
7195;SDS011;3639;51.308;5.624;2023-06-10T11:55:45;6.55;;;4.80;;
7195;SDS011;3639;51.308;5.624;2023-06-10T11:58:19;7.85;;;4.47;;
7195;SDS011;3639;51.308;5.624;2023-06-10T12:00:49;6.78;;;4.85;;
7195;SDS011;3639;51.308;5.624;2023-06-10T12:03:16;6.50;;;4.50;;
7195;SDS011;3639;51.308;5.624;2023-06-10T12:05:58;5.45;;;4.45;;
7195;SDS011;3639;51.308;5.624;2023-06-10T12:08:25;5.75;;;4.75;;
7195;SDS011;3639;51.308;5.624;2023-06-10T12:10:52;8.75;;;5.25;;
7195;SDS011;3639;51.308;5.624;2023-06-10T12:13:18;4.97;;;4.40;;
7195;SDS011;3639;51.308;5.624;2023-06-10T12:15:44;6.97;;;4.80;;
7195;SDS011;3639;51.308;5.624;2023-06-10T12:18:20;6.53;;;5.07;;
7195;SDS011;3639;51.308;5.624;2023-06-10T12:20:47;6.18;;;4.75;;
7195;SDS011;3639;51.308;5.624;2023-06-10T12:23:13;5.55;;;4.40;;
7195;SDS011;3639;51.308;5.624;2023-06-10T12:25:49;7.40;;;4.70;;
7195;SDS011;3639;51.308;5.624;2023-06-10T12:28:22;5.70;;;4.32;;
7195;SDS011;3639;51.308;5.624;2023-06-10T12:30:48;6.35;;;4.60;;
7195;SDS011;3639;51.308;5.624;2023-06-10T12:35:51;5.78;;;4.53;;
7195;SDS011;3639;51.308;5.624;2023-06-10T12:38:23;7.90;;;4.90;;
7195;SDS011;3639;51.308;5.624;2023-06-10T12:40:52;5.45;;;4.63;;
7195;SDS011;3639;51.308;5.624;2023-06-10T12:43:21;6.00;;;4.38;;
7195;SDS011;3639;51.308;5.624;2023-06-10T12:45:48;6.13;;;4.32;;
7195;SDS011;3639;51.308;5.624;2023-06-10T12:48:24;4.55;;;4.13;;
7195;SDS011;3639;51.308;5.624;2023-06-10T12:50:54;4.63;;;4.18;;
7195;SDS011;3639;51.308;5.624;2023-06-10T12:53:20;4.93;;;4.10;;
7195;SDS011;3639;51.308;5.624;2023-06-10T12:55:48;5.78;;;4.78;;
7195;SDS011;3639;51.308;5.624;2023-06-10T12:58:15;6.82;;;4.63;;
7195;SDS011;3639;51.308;5.624;2023-06-10T13:00:41;5.72;;;4.53;;
7195;SDS011;3639;51.308;5.624;2023-06-10T13:03:07;5.70;;;4.22;;
7195;SDS011;3639;51.308;5.624;2023-06-10T13:05:37;5.93;;;4.80;;
7195;SDS011;3639;51.308;5.624;2023-06-10T13:08:04;6.00;;;4.30;;
7195;SDS011;3639;51.308;5.624;2023-06-10T13:10:35;6.05;;;4.30;;
7195;SDS011;3639;51.308;5.624;2023-06-10T13:13:01;5.93;;;4.40;;
7195;SDS011;3639;51.308;5.624;2023-06-10T13:15:27;6.05;;;4.70;;
7195;SDS011;3639;51.308;5.624;2023-06-10T13:17:53;5.65;;;4.63;;
7195;SDS011;3639;51.308;5.624;2023-06-10T13:20:18;7.53;;;5.00;;
7195;SDS011;3639;51.308;5.624;2023-06-10T13:22:45;6.43;;;4.78;;
7195;SDS011;3639;51.308;5.624;2023-06-10T13:25:12;6.25;;;4.75;;
7195;SDS011;3639;51.308;5.624;2023-06-10T13:27:39;6.68;;;4.45;;
7195;SDS011;3639;51.308;5.624;2023-06-10T13:30:08;5.63;;;4.63;;
7195;SDS011;3639;51.308;5.624;2023-06-10T13:32:35;7.60;;;5.47;;
7195;SDS011;3639;51.308;5.624;2023-06-10T13:35:01;6.03;;;4.78;;
7195;SDS011;3639;51.308;5.624;2023-06-10T13:37:26;8.38;;;4.50;;
7195;SDS011;3639;51.308;5.624;2023-06-10T13:39:52;5.93;;;4.60;;
7195;SDS011;3639;51.308;5.624;2023-06-10T13:42:18;6.40;;;4.90;;
7195;SDS011;3639;51.308;5.624;2023-06-10T13:44:44;5.93;;;5.00;;
7195;SDS011;3639;51.308;5.624;2023-06-10T13:47:10;5.13;;;4.50;;
7195;SDS011;3639;51.308;5.624;2023-06-10T13:49:36;5.88;;;4.80;;
7195;SDS011;3639;51.308;5.624;2023-06-10T13:52:02;5.93;;;4.47;;
7195;SDS011;3639;51.308;5.624;2023-06-10T13:54:28;7.57;;;5.10;;
7195;SDS011;3639;51.308;5.624;2023-06-10T13:56:53;5.20;;;4.70;;
7195;SDS011;3639;51.308;5.624;2023-06-10T13:59:19;5.72;;;5.13;;
7195;SDS011;3639;51.308;5.624;2023-06-10T14:01:46;7.47;;;4.85;;
7195;SDS011;3639;51.308;5.624;2023-06-10T14:04:12;6.93;;;5.10;;
7195;SDS011;3639;51.308;5.624;2023-06-10T14:06:37;6.45;;;4.82;;
7195;SDS011;3639;51.308;5.624;2023-06-10T14:09:03;6.05;;;5.22;;
7195;SDS011;3639;51.308;5.624;2023-06-10T14:11:29;5.15;;;4.65;;
7195;SDS011;3639;51.308;5.624;2023-06-10T14:13:55;6.72;;;5.20;;
7195;SDS011;3639;51.308;5.624;2023-06-10T14:16:23;6.85;;;5.47;;
7195;SDS011;3639;51.308;5.624;2023-06-10T14:18:49;5.65;;;4.70;;
7195;SDS011;3639;51.308;5.624;2023-06-10T14:21:18;5.65;;;4.80;;
7195;SDS011;3639;51.308;5.624;2023-06-10T14:23:43;5.95;;;4.70;;
7195;SDS011;3639;51.308;5.624;2023-06-10T14:26:10;7.20;;;5.18;;
7195;SDS011;3639;51.308;5.624;2023-06-10T14:28:36;6.68;;;4.60;;
7195;SDS011;3639;51.308;5.624;2023-06-10T14:31:01;5.55;;;4.68;;
7195;SDS011;3639;51.308;5.624;2023-06-10T14:33:27;6.00;;;4.72;;
7195;SDS011;3639;51.308;5.624;2023-06-10T14:35:53;8.35;;;4.97;;
7195;SDS011;3639;51.308;5.624;2023-06-10T14:38:18;5.65;;;4.60;;
7195;SDS011;3639;51.308;5.624;2023-06-10T14:40:44;5.05;;;4.53;;
7195;SDS011;3639;51.308;5.624;2023-06-10T14:43:09;6.82;;;5.40;;
7195;SDS011;3639;51.308;5.624;2023-06-10T14:45:38;5.63;;;4.88;;
7195;SDS011;3639;51.308;5.624;2023-06-10T14:48:05;5.28;;;4.68;;
7195;SDS011;3639;51.308;5.624;2023-06-10T14:50:31;5.95;;;4.97;;
7195;SDS011;3639;51.308;5.624;2023-06-10T14:53:00;5.32;;;4.47;;
7195;SDS011;3639;51.308;5.624;2023-06-10T14:55:26;6.15;;;5.20;;
7195;SDS011;3639;51.308;5.624;2023-06-10T14:57:52;7.13;;;5.15;;
7195;SDS011;3639;51.308;5.624;2023-06-10T15:00:18;6.72;;;5.47;;
7195;SDS011;3639;51.308;5.624;2023-06-10T15:02:47;5.88;;;4.82;;
7195;SDS011;3639;51.308;5.624;2023-06-10T15:05:13;4.68;;;4.03;;
7195;SDS011;3639;51.308;5.624;2023-06-10T15:07:44;5.63;;;4.88;;
7195;SDS011;3639;51.308;5.624;2023-06-10T15:10:10;5.25;;;4.70;;
7195;SDS011;3639;51.308;5.624;2023-06-10T15:12:36;7.15;;;5.15;;
7195;SDS011;3639;51.308;5.624;2023-06-10T15:15:02;5.95;;;4.72;;
7195;SDS011;3639;51.308;5.624;2023-06-10T15:17:28;6.68;;;5.20;;
7195;SDS011;3639;51.308;5.624;2023-06-10T15:19:54;8.23;;;5.13;;
7195;SDS011;3639;51.308;5.624;2023-06-10T15:22:19;6.85;;;5.13;;
7195;SDS011;3639;51.308;5.624;2023-06-10T15:24:45;8.13;;;4.97;;
7195;SDS011;3639;51.308;5.624;2023-06-10T15:27:11;5.22;;;4.35;;